Time;durP1;ratioP1;P1;durP2;ratioP2;P2;SDS_P1;SDS_P2;PMS_P1;PMS_P2;Temp;Humidity;BMP_temperature;BMP_pressure;BME280_temperature;BME280_humidity;BME280_pressure;Samples;Min_cycle;Max_cycle;Signal;HPM_P1;HPM_P2
2022/06/29 00:00:18;;;;;;;0.75;0.15;;;;;;;16.34;83.53;101654.47;10469842;28;20340;-74
2022/06/29 00:06:04;;;;;;;0.73;0.60;;;;;;;16.12;84.91;101648.94;10476464;28;20458;-74
2022/06/29 00:11:30;;;;;;;0.08;0.00;;;;;;;16.23;84.81;101645.63;10472394;28;20037;-74
2022/06/29 00:16:41;;;;;;;0.28;0.22;;;;;;;15.90;86.71;101637.34;10474706;28;20048;-75
2022/06/29 00:21:43;;;;;;;0.10;0.10;;;;;;;15.90;87.33;101636.50;10475613;28;20048;-74
2022/06/29 00:26:45;;;;;;;0.03;0.03;;;;;;;15.86;88.07;101635.56;10510264;28;20032;-75
2022/06/29 00:31:46;;;;;;;0.25;0.10;;;;;;;15.58;89.46;101639.41;10498740;28;20628;-75
2022/06/29 00:36:48;;;;;;;0.00;0.00;;;;;;;15.49;90.35;101635.78;10479369;28;20064;-74
2022/06/29 00:41:50;;;;;;;0.10;0.10;;;;;;;15.19;92.93;101637.00;10502164;28;20106;-74
2022/06/29 00:46:57;;;;;;;0.10;0.10;;;;;;;15.17;93.12;101625.69;10481253;28;20492;-74
2022/06/29 00:52:11;;;;;;;0.25;0.20;;;;;;;14.74;97.09;101627.47;10500223;28;20048;-74
2022/06/29 00:57:20;;;;;;;0.30;0.30;;;;;;;14.42;100.00;101625.91;10481953;28;20040;-74
2022/06/29 01:02:25;;;;;;;0.73;0.38;;;;;;;14.58;99.09;101627.13;10485297;28;20094;-74
2022/06/29 01:07:29;;;;;;;0.40;0.32;;;;;;;14.89;96.28;101614.81;10484309;28;20044;-75
2022/06/29 01:12:31;;;;;;;0.43;0.35;;;;;;;14.90;95.98;101608.78;10480149;28;20051;-75
2022/06/29 01:17:32;;;;;;;0.22;0.22;;;;;;;14.97;93.97;101616.66;10494360;28;20466;-75
2022/06/29 01:22:34;;;;;;;0.20;0.20;;;;;;;15.00;93.58;101617.59;10502842;28;20106;-74
2022/06/29 01:27:38;;;;;;;0.15;0.15;;;;;;;14.98;93.98;101616.69;10480484;28;20033;-74
2022/06/29 01:32:40;;;;;;;0.20;0.20;;;;;;;15.02;93.41;101612.44;10478960;28;20094;-74
2022/06/29 01:37:42;;;;;;;0.30;0.30;;;;;;;15.07;92.90;101603.03;10498169;28;20045;-74
2022/06/29 01:42:44;;;;;;;0.63;0.38;;;;;;;15.09;93.23;101598.72;10490662;28;20098;-75
2022/06/29 01:47:45;;;;;;;1.08;0.63;;;;;;;14.91;94.22;101589.78;10478604;28;20047;-75
2022/06/29 01:52:47;;;;;;;0.30;0.30;;;;;;;14.93;94.12;101574.22;10469492;28;20069;-74
2022/06/29 01:57:48;;;;;;;0.68;0.40;;;;;;;14.94;93.67;101575.09;10506312;28;20059;-75
2022/06/29 02:02:57;;;;;;;0.30;0.28;;;;;;;14.82;95.19;101579.22;10511961;27;20432;-76
2022/06/29 02:07:58;;;;;;;0.77;0.40;;;;;;;14.88;94.25;101568.94;10473995;28;20052;-76
2022/06/29 02:13:02;;;;;;;0.28;0.22;;;;;;;14.77;95.51;101565.28;10471062;28;20041;-76
2022/06/29 02:18:04;;;;;;;0.00;0.00;;;;;;;14.32;99.07;101572.13;10470573;28;20079;-76
2022/06/29 02:23:06;;;;;;;0.28;0.20;;;;;;;14.20;100.00;101566.69;10481688;28;20462;-76
2022/06/29 02:28:07;;;;;;;0.15;0.10;;;;;;;14.08;100.00;101573.34;10463039;28;20125;-76
2022/06/29 02:38:29;;;;;;;0.75;0.45;;;;;;;14.08;100.00;101562.97;10484920;28;20400;-76
2022/06/29 02:43:31;;;;;;;0.60;0.30;;;;;;;14.26;98.55;101559.91;10469515;28;20048;-76
2022/06/29 02:48:35;;;;;;;0.40;0.30;;;;;;;14.04;100.00;101562.88;10486210;28;20144;-76
2022/06/29 02:53:36;;;;;;;0.30;0.20;;;;;;;13.87;100.00;101568.56;10486054;28;20040;-76
2022/06/29 02:58:38;;;;;;;0.35;0.22;;;;;;;13.91;100.00;101565.19;10468242;28;20060;-77
2022/06/29 03:03:40;;;;;;;0.70;0.57;;;;;;;13.82;100.00;101557.19;10474753;28;20179;-76
2022/06/29 03:08:41;;;;;;;0.30;0.20;;;;;;;13.77;100.00;101556.22;10480132;28;20649;-76
2022/06/29 03:13:43;;;;;;;0.25;0.25;;;;;;;13.79;100.00;101539.88;10440315;28;20041;-77
2022/06/29 03:18:45;;;;;;;0.52;0.32;;;;;;;13.72;100.00;101542.31;10438370;28;20049;-77
2022/06/29 03:23:47;;;;;;;0.40;0.40;;;;;;;13.73;100.00;101546.66;10442106;28;20542;-79
2022/06/29 03:28:52;;;;;;;0.35;0.30;;;;;;;13.84;100.00;101540.00;10437988;28;20037;-78
2022/06/29 03:33:54;;;;;;;1.15;0.65;;;;;;;13.71;100.00;101532.78;10450736;28;20047;-78
2022/06/29 03:38:55;;;;;;;0.40;0.30;;;;;;;13.53;100.00;101534.09;10433437;28;20488;-77
2022/06/29 03:43:57;;;;;;;0.00;0.00;;;;;;;13.69;100.00;101534.47;10456188;28;20052;-77
2022/06/29 03:48:59;;;;;;;0.30;0.22;;;;;;;13.54;100.00;101533.25;10455070;28;20381;-77
2022/06/29 03:54:01;;;;;;;0.30;0.30;;;;;;;13.49;100.00;101524.53;10438216;28;20455;-78
2022/06/29 03:59:02;;;;;;;0.45;0.30;;;;;;;13.57;100.00;101524.69;10454679;28;20044;-77
2022/06/29 04:04:06;;;;;;;0.40;0.30;;;;;;;13.81;100.00;101514.03;10450402;28;20044;-78
2022/06/29 04:09:08;;;;;;;2.17;0.22;;;;;;;13.55;100.00;101519.47;10454457;28;20094;-78
2022/06/29 04:14:09;;;;;;;0.40;0.30;;;;;;;13.56;100.00;101520.34;10442880;28;20049;-77
2022/06/29 04:19:11;;;;;;;0.30;0.30;;;;;;;13.87;100.00;101515.88;10453443;28;20041;-78
2022/06/29 04:24:15;;;;;;;0.95;0.73;;;;;;;13.64;100.00;101522.28;10446335;28;20049;-78
2022/06/29 04:29:16;;;;;;;0.40;0.30;;;;;;;13.98;100.00;101522.19;10450369;28;20075;-77
2022/06/29 04:34:18;;;;;;;0.43;0.32;;;;;;;14.34;100.00;101510.81;10437769;28;20049;-77
2022/06/29 04:39:19;;;;;;;0.55;0.35;;;;;;;14.76;100.00;101511.66;10453554;28;20094;-77
2022/06/29 04:44:21;;;;;;;0.47;0.30;;;;;;;15.07;100.00;101496.63;10430140;28;20095;-78
2022/06/29 04:49:23;;;;;;;0.93;0.50;;;;;;;15.46;100.00;101490.31;10448719;28;20488;-78
2022/06/29 04:54:24;;;;;;;0.32;0.32;;;;;;;15.72;100.00;101495.03;10444003;28;20056;-77
2022/06/29 04:59:26;;;;;;;0.45;0.30;;;;;;;16.06;98.84;101482.50;10447948;28;20365;-77
2022/06/29 05:04:29;;;;;;;2.92;0.68;;;;;;;16.24;98.30;101480.97;10449529;28;20057;-80
2022/06/29 05:09:31;;;;;;;0.35;0.30;;;;;;;16.22;95.19;101475.78;10430438;28;20045;-80
2022/06/29 05:14:32;;;;;;;1.25;0.75;;;;;;;16.29;94.81;101484.50;10449853;28;20090;-80
2022/06/29 05:19:34;;;;;;;0.30;0.30;;;;;;;16.70;93.77;101481.50;10429957;28;20049;-80
2022/06/29 05:24:35;;;;;;;0.80;0.50;;;;;;;16.63;92.57;101477.09;10447409;28;20091;-80
2022/06/29 05:29:37;;;;;;;0.68;0.50;;;;;;;16.98;93.61;101481.75;10449757;28;20258;-80
2022/06/29 05:34:41;;;;;;;2.22;1.05;;;;;;;17.20;91.26;101479.34;10428959;28;20122;-80
2022/06/29 05:39:45;;;;;;;0.85;0.50;;;;;;;17.35;91.49;101479.44;10429917;28;20118;-80
2022/06/29 05:44:47;;;;;;;1.88;0.50;;;;;;;17.37;93.66;101469.91;10428344;28;20052;-80
2022/06/29 05:49:48;;;;;;;0.82;0.68;;;;;;;17.78;91.06;101465.81;10442398;28;20040;-79
2022/06/29 05:54:50;;;;;;;1.00;0.57;;;;;;;17.79;91.30;101456.25;10446297;28;20103;-79
2022/06/29 05:59:51;;;;;;;2.35;0.50;;;;;;;17.92;90.05;101455.44;10447080;28;20400;-80
2022/06/29 06:04:53;;;;;;;1.05;0.75;;;;;;;18.20;90.85;101466.03;10422853;28;20175;-79
2022/06/29 06:09:55;;;;;;;0.40;0.40;;;;;;;18.45;88.27;101460.84;10445392;28;20087;-80
2022/06/29 06:15:01;;;;;;;0.55;0.43;;;;;;;18.74;87.04;101465.25;10442758;28;20041;-80
2022/06/29 06:20:03;;;;;;;1.38;1.25;;;;;;;18.74;86.53;101465.25;10444124;28;20362;-80
2022/06/29 06:25:07;;;;;;;1.00;0.95;;;;;;;18.97;79.73;101458.31;10424833;28;20111;-79
2022/06/29 06:30:09;;;;;;;1.10;0.50;;;;;;;19.07;79.90;101463.56;10445705;28;20463;-79
2022/06/29 06:35:11;;;;;;;0.25;0.25;;;;;;;19.25;75.50;101460.06;10446462;28;20098;-79
2022/06/29 06:45:33;;;;;;;0.45;0.43;;;;;;;20.02;79.16;101456.38;10425549;28;20106;-80
2022/06/29 06:50:35;;;;;;;0.30;0.22;;;;;;;20.18;74.53;101452.81;10446964;28;20049;-79
2022/06/29 06:55:36;;;;;;;0.30;0.20;;;;;;;20.84;74.92;101443.66;10433408;28;20037;-79
2022/06/29 07:00:38;;;;;;;0.95;0.57;;;;;;;21.60;72.13;101439.47;10442780;28;20538;-80
2022/06/29 07:05:40;;;;;;;1.90;0.93;;;;;;;22.09;66.90;101432.75;10432782;28;20130;-80
2022/06/29 07:10:42;;;;;;;0.70;0.45;;;;;;;22.37;66.07;101448.97;10454244;28;20079;-79
2022/06/29 07:15:43;;;;;;;0.10;0.10;;;;;;;21.85;66.61;101435.69;10435857;28;20093;-80
2022/06/29 07:20:45;;;;;;;0.50;0.35;;;;;;;21.47;64.64;101444.81;10452094;28;20040;-79
2022/06/29 07:25:47;;;;;;;0.10;0.10;;;;;;;21.42;67.76;101443.13;10439754;28;20040;-79
2022/06/29 07:30:49;;;;;;;0.20;0.13;;;;;;;21.40;68.53;101443.16;10454944;28;20049;-79
2022/06/29 07:35:51;;;;;;;0.15;0.15;;;;;;;22.17;68.28;101436.97;10453232;28;20048;-79
2022/06/29 07:40:52;;;;;;;0.25;0.25;;;;;;;21.82;66.01;101433.06;10437793;28;20045;-79
2022/06/29 07:45:57;;;;;;;0.52;0.30;;;;;;;22.06;69.32;101428.41;10456421;28;20049;-79
2022/06/29 07:50:59;;;;;;;0.38;0.15;;;;;;;22.31;70.86;101423.66;10455657;28;20041;-79
2022/06/29 07:56:01;;;;;;;0.98;0.40;;;;;;;22.63;69.13;101418.84;10455742;28;20039;-79
2022/06/29 08:01:03;;;;;;;0.73;0.40;;;;;;;22.91;68.62;101420.97;10455077;28;20037;-79
2022/06/29 08:06:06;;;;;;;0.60;0.28;;;;;;;22.81;64.01;101423.78;10432391;28;20520;-79
2022/06/29 08:11:08;;;;;;;0.20;0.10;;;;;;;22.85;66.75;101426.34;10453910;28;20087;-79
2022/06/29 08:16:11;;;;;;;0.20;0.20;;;;;;;22.96;67.46;101432.31;10454330;28;20080;-79
2022/06/29 08:21:13;;;;;;;0.10;0.10;;;;;;;23.26;61.84;101430.03;10452812;28;20029;-79
2022/06/29 08:26:14;;;;;;;0.25;0.25;;;;;;;23.69;64.59;101423.06;10434871;28;20111;-79
2022/06/29 08:31:36;;;;;;;0.55;0.35;;;;;;;23.86;65.41;101420.09;10430222;28;20041;-79
2022/06/29 08:36:38;;;;;;;0.57;0.32;;;;;;;24.64;56.79;101425.31;10454249;28;20500;-76
2022/06/29 08:41:52;;;;;;;0.32;0.20;;;;;;;25.75;54.00;101412.75;10451336;28;20378;-76
2022/06/29 08:46:54;;;;;;;0.45;0.20;;;;;;;26.10;58.51;101416.13;10447055;28;20102;-77
2022/06/29 08:51:56;;;;;;;1.27;0.75;;;;;;;26.33;51.52;101417.16;10453863;28;20041;-76
2022/06/29 08:56:58;;;;;;;0.22;0.17;;;;;;;25.68;50.34;101414.72;10434370;28;20045;-76
2022/06/29 09:02:01;;;;;;;0.15;0.15;;;;;;;25.59;49.51;101405.28;10451642;28;20041;-76
2022/06/29 09:07:03;;;;;;;0.95;0.50;;;;;;;24.51;56.12;101414.22;10452570;28;20084;-76
2022/06/29 09:12:05;;;;;;;0.13;0.13;;;;;;;24.94;50.99;101412.31;10449999;28;20040;-76
2022/06/29 09:17:06;;;;;;;0.17;0.17;;;;;;;24.79;55.31;101404.78;10450338;28;20059;-76
2022/06/29 09:22:09;;;;;;;0.93;0.45;;;;;;;24.52;56.86;101399.31;10435316;28;20374;-76
2022/06/29 09:27:11;;;;;;;0.13;0.13;;;;;;;24.43;58.45;101405.63;10448205;28;20044;-76
2022/06/29 09:32:19;;;;;;;0.28;0.28;;;;;;;25.21;48.21;101404.53;10433110;28;20053;-76
2022/06/29 09:37:22;;;;;;;0.22;0.13;;;;;;;25.15;53.17;101397.69;10431743;28;20396;-78
2022/06/29 09:42:26;;;;;;;0.30;0.08;;;;;;;25.75;50.25;101389.00;10447765;28;20063;-77
2022/06/29 09:47:28;;;;;;;0.10;0.10;;;;;;;25.70;49.83;101396.19;10432271;28;20053;-77
2022/06/29 09:52:32;;;;;;;0.10;0.10;;;;;;;25.29;55.86;101394.66;10449792;28;20075;-76
2022/06/29 09:57:37;;;;;;;0.80;0.63;;;;;;;25.52;55.38;101401.09;10439786;28;20049;-76
2022/06/29 10:02:40;;;;;;;4.40;0.60;;;;;;;25.29;55.22;101402.56;10445681;28;20079;-76
2022/06/29 10:07:47;;;;;;;0.10;0.10;;;;;;;25.63;47.37;101404.28;10431538;28;20049;-76
2022/06/29 10:18:44;;;;;;;0.88;0.70;;;;;;;25.58;48.94;101403.53;10446442;28;20494;-77
2022/06/29 10:23:48;;;;;;;0.20;0.20;;;;;;;25.81;50.56;101394.97;10455092;28;20045;-76
2022/06/29 10:28:50;;;;;;;0.77;0.50;;;;;;;25.43;55.69;101394.31;10454250;28;20572;-77
2022/06/29 10:33:52;;;;;;;0.17;0.17;;;;;;;25.14;58.10;101387.16;10450396;28;20154;-77
2022/06/29 10:39:03;;;;;;;0.30;0.30;;;;;;;25.15;51.85;101381.00;10447944;28;20092;-77
2022/06/29 10:44:05;;;;;;;0.50;0.45;;;;;;;25.19;55.34;101380.03;10453379;28;20033;-78
2022/06/29 10:49:19;;;;;;;0.00;0.00;;;;;;;25.39;56.54;101370.69;10452281;28;20049;-81
2022/06/29 10:54:25;;;;;;;0.93;0.45;;;;;;;25.00;57.50;101384.94;10452414;28;20068;-80
2022/06/29 10:59:38;;;;;;;0.68;0.40;;;;;;;24.73;58.42;101381.25;10458013;28;20732;-79
2022/06/29 11:04:41;;;;;;;1.75;0.47;;;;;;;25.08;57.16;101377.69;10428623;28;20052;-79
2022/06/29 11:20:26;;;;;;;0.57;0.40;;;;;;;27.01;53.40;101356.75;10450954;28;20506;-79
2022/06/29 11:25:35;;;;;;;0.52;0.32;;;;;;;27.45;51.34;101351.63;10435711;28;20063;-78
2022/06/29 11:30:37;;;;;;;0.20;0.15;;;;;;;26.81;45.18;101354.84;10457155;28;20083;-79
2022/06/29 11:35:42;;;;;;;0.17;0.17;;;;;;;26.98;47.92;101343.66;10453586;28;20376;-80
2022/06/29 11:40:46;;;;;;;0.55;0.40;;;;;;;26.74;43.43;101348.84;10437003;28;20063;-81
2022/06/29 11:46:18;;;;;;;0.10;0.10;;;;;;;27.19;45.88;101340.22;10445473;28;20139;-79
2022/06/29 11:51:20;;;;;;;0.40;0.40;;;;;;;27.41;45.71;101331.47;10449306;28;20052;-79
2022/06/29 11:56:27;;;;;;;0.15;0.15;;;;;;;27.53;40.05;101336.31;10454486;28;20503;-80
2022/06/29 12:01:28;;;;;;;0.68;0.40;;;;;;;27.35;39.48;101329.06;10453243;28;20037;-79
2022/06/29 12:06:37;;;;;;;0.28;0.28;;;;;;;27.49;37.91;101318.84;10454845;28;20053;-80
2022/06/29 12:11:39;;;;;;;0.10;0.10;;;;;;;27.64;40.18;101313.88;10455003;28;20045;-79
2022/06/29 12:16:40;;;;;;;0.20;0.15;;;;;;;27.32;41.98;101302.72;10437681;28;20122;-81
2022/06/29 12:21:42;;;;;;;0.30;0.30;;;;;;;27.83;42.54;101293.69;10432129;28;20045;-79
2022/06/29 12:26:44;;;;;;;0.50;0.30;;;;;;;28.18;43.16;101296.69;10432309;28;20045;-80
2022/06/29 12:31:49;;;;;;;0.80;0.43;;;;;;;27.10;39.83;101292.97;10437252;28;20037;-79
2022/06/29 12:36:51;;;;;;;0.10;0.10;;;;;;;27.28;41.17;101296.69;10430226;28;20041;-80
2022/06/29 12:41:53;;;;;;;0.00;0.00;;;;;;;27.77;40.55;101298.38;10418634;28;20038;-80
2022/06/29 12:46:55;;;;;;;1.15;0.28;;;;;;;27.48;37.07;101293.31;10450762;28;20060;-79
2022/06/29 12:51:57;;;;;;;0.38;0.28;;;;;;;27.99;40.50;101283.34;10450701;28;20108;-80
2022/06/29 12:56:58;;;;;;;0.20;0.20;;;;;;;27.90;40.29;101283.72;10446719;28;20467;-80
2022/06/29 13:02:00;;;;;;;0.65;0.45;;;;;;;28.17;41.91;101281.75;10449581;28;20045;-77
2022/06/29 13:07:02;;;;;;;0.22;0.20;;;;;;;27.87;38.17;101286.47;10433433;28;20075;-76
2022/06/29 13:12:04;;;;;;;0.43;0.40;;;;;;;27.61;37.63;101282.22;10428066;28;20048;-77
2022/06/29 13:17:05;;;;;;;0.00;0.00;;;;;;;28.03;38.02;101284.06;10433710;28;20048;-78
2022/06/29 13:22:09;;;;;;;0.10;0.10;;;;;;;27.79;38.33;101286.81;10447253;28;20447;-77
2022/06/29 13:27:10;;;;;;;0.13;0.13;;;;;;;28.73;39.26;101279.34;10452072;28;20045;-77
2022/06/29 13:32:12;;;;;;;0.38;0.20;;;;;;;28.21;38.64;101284.25;10431987;28;20038;-77
2022/06/29 13:37:14;;;;;;;0.55;0.43;;;;;;;28.09;38.13;101275.03;10448934;28;20045;-76
2022/06/29 13:42:16;;;;;;;0.10;0.10;;;;;;;27.70;38.75;101273.94;10430097;28;20047;-76
2022/06/29 13:47:17;;;;;;;0.15;0.15;;;;;;;28.56;39.33;101272.13;10451190;28;20641;-78
2022/06/29 13:52:19;;;;;;;0.20;0.20;;;;;;;28.21;38.75;101271.88;10434367;28;20048;-77
2022/06/29 13:57:22;;;;;;;0.20;0.20;;;;;;;28.46;42.43;101255.78;10451927;28;20041;-77
2022/06/29 14:02:26;;;;;;;0.95;0.28;;;;;;;28.54;40.01;101259.88;10449316;28;20499;-77
2022/06/29 14:07:28;;;;;;;1.27;0.68;;;;;;;28.10;37.24;101264.38;10431238;28;20508;-78
2022/06/29 14:12:49;;;;;;;0.20;0.10;;;;;;;28.42;37.93;101258.63;10449117;28;20068;-76
2022/06/29 14:17:51;;;;;;;1.63;1.15;;;;;;;28.09;37.71;101249.41;10442069;28;20041;-77
2022/06/29 14:22:53;;;;;;;0.00;0.00;;;;;;;28.06;35.54;101251.34;10428279;28;20041;-76
2022/06/29 14:27:54;;;;;;;0.10;0.10;;;;;;;28.49;36.99;101245.03;10455246;28;20381;-77
2022/06/29 14:32:56;;;;;;;1.40;0.88;;;;;;;28.74;37.91;101229.84;10430984;28;20045;-75
2022/06/29 14:37:57;;;;;;;0.35;0.25;;;;;;;27.86;36.74;101237.09;10450208;28;20059;-75
2022/06/29 14:43:00;;;;;;;0.43;0.32;;;;;;;28.17;32.77;101226.13;10443266;28;20114;-75
2022/06/29 14:48:02;;;;;;;0.32;0.32;;;;;;;27.86;36.20;101219.44;10450825;28;20072;-75
2022/06/29 14:53:04;;;;;;;0.08;0.08;;;;;;;27.96;36.69;101213.75;10428947;28;20045;-76
2022/06/29 14:58:05;;;;;;;0.10;0.05;;;;;;;28.03;38.22;101212.56;10449902;28;20057;-77
2022/06/29 15:03:17;;;;;;;0.17;0.10;;;;;;;28.22;39.67;101209.16;10435257;28;20049;-76
2022/06/29 15:08:19;;;;;;;0.17;0.17;;;;;;;27.91;36.46;101203.34;10465067;28;20068;-76
2022/06/29 15:13:20;;;;;;;0.40;0.20;;;;;;;28.06;35.44;101207.16;10436918;28;20364;-77
2022/06/29 15:18:23;;;;;;;0.32;0.20;;;;;;;27.86;36.83;101197.38;10466753;28;20045;-77
2022/06/29 15:23:25;;;;;;;0.20;0.17;;;;;;;27.61;34.95;101209.00;10442538;28;20041;-76
2022/06/29 15:28:29;;;;;;;0.45;0.25;;;;;;;27.71;35.71;101204.19;10447131;28;20055;-76
2022/06/29 15:38:56;;;;;;;1.55;0.30;;;;;;;28.20;37.97;101190.69;10460345;28;20116;-76
2022/06/29 15:43:59;;;;;;;0.20;0.20;;;;;;;27.76;35.83;101196.06;10461259;28;20044;-76
2022/06/29 15:49:01;;;;;;;5.82;0.45;;;;;;;27.95;36.87;101182.91;10428695;28;20110;-76
2022/06/29 15:59:28;;;;;;;0.20;0.20;;;;;;;27.60;37.32;101190.53;10460544;28;20559;-76
2022/06/29 16:04:30;;;;;;;0.20;0.20;;;;;;;27.74;40.02;101182.88;10460872;28;20045;-76
2022/06/29 16:09:31;;;;;;;0.20;0.20;;;;;;;27.44;39.93;101175.28;10463021;28;20049;-77
2022/06/29 16:14:40;;;;;;;0.20;0.20;;;;;;;27.62;41.71;101178.09;10448904;28;20072;-77
2022/06/29 16:19:42;;;;;;;0.03;0.03;;;;;;;27.55;38.02;101178.34;10445986;28;20099;-77
2022/06/29 16:24:49;;;;;;;0.50;0.30;;;;;;;27.82;40.50;101169.31;10455926;28;20047;-75
2022/06/29 16:29:50;;;;;;;0.35;0.35;;;;;;;27.28;38.29;101168.88;10484900;28;20124;-77
2022/06/29 16:34:52;;;;;;;0.10;0.00;;;;;;;27.65;42.67;101155.00;10467498;28;20049;-76
2022/06/29 16:39:54;;;;;;;2.65;0.47;;;;;;;27.53;41.38;101164.31;10456348;28;20045;-75
2022/06/29 16:44:57;;;;;;;0.32;0.25;;;;;;;27.37;39.45;101153.47;10449885;28;20041;-76
2022/06/29 16:49:58;;;;;;;0.22;0.10;;;;;;;27.33;39.06;101156.31;10441181;28;20056;-76
2022/06/29 16:55:00;;;;;;;0.00;0.00;;;;;;;27.42;42.37;101152.44;10417146;28;20457;-76
2022/06/29 17:00:05;;;;;;;0.75;0.32;;;;;;;27.30;40.34;101151.13;10461986;28;20037;-75
2022/06/29 17:05:07;;;;;;;0.20;0.20;;;;;;;27.30;41.56;101137.91;10441572;28;20065;-76
2022/06/29 17:10:09;;;;;;;0.00;0.00;;;;;;;26.86;39.21;101141.41;10458790;28;20131;-77
2022/06/29 17:15:11;;;;;;;0.08;0.08;;;;;;;26.73;40.80;101141.84;10435308;28;20064;-76
2022/06/29 17:20:40;;;;;;;0.10;0.10;;;;;;;27.02;40.48;101141.66;10441364;28;20041;-76
2022/06/29 17:25:42;;;;;;;0.08;0.08;;;;;;;26.97;40.18;101133.06;10444651;28;20135;-76
2022/06/29 17:30:43;;;;;;;0.30;0.20;;;;;;;26.79;40.16;101134.66;10457318;28;20098;-76
2022/06/29 17:35:45;;;;;;;0.47;0.47;;;;;;;26.84;40.37;101127.38;10419621;28;20046;-76
2022/06/29 17:40:52;;;;;;;0.00;0.00;;;;;;;26.85;41.04;101132.59;10444053;28;20042;-77
2022/06/29 17:45:54;;;;;;;0.00;0.00;;;;;;;26.79;41.07;101129.38;10436335;28;20040;-76
2022/06/29 17:50:55;;;;;;;0.10;0.10;;;;;;;26.80;42.83;101116.06;10448259;28;20044;-77
2022/06/29 17:55:57;;;;;;;0.10;0.10;;;;;;;26.76;42.56;101111.84;10424652;28;20392;-76
2022/06/29 18:00:59;;;;;;;0.10;0.10;;;;;;;26.76;44.48;101109.19;10456831;28;20055;-76
2022/06/29 18:06:00;;;;;;;0.13;0.13;;;;;;;26.82;44.50;101113.38;10457894;28;20112;-76
2022/06/29 18:11:02;;;;;;;0.55;0.10;;;;;;;26.60;44.80;101099.19;10450795;28;20100;-76
2022/06/29 18:16:24;;;;;;;0.15;0.15;;;;;;;26.36;42.83;101102.75;10417700;28;20044;-77
2022/06/29 18:21:25;;;;;;;0.00;0.00;;;;;;;26.36;45.12;101105.38;10398137;28;20072;-76
2022/06/29 18:26:27;;;;;;;0.20;0.00;;;;;;;26.04;48.40;101099.47;10433313;28;20511;-77
2022/06/29 18:31:29;;;;;;;0.10;0.10;;;;;;;25.80;47.64;101092.38;10456196;28;20044;-76
2022/06/29 18:36:32;;;;;;;0.35;0.20;;;;;;;25.74;48.91;101099.63;10442221;28;20046;-76
2022/06/29 18:41:33;;;;;;;0.28;0.28;;;;;;;25.43;51.08;101101.53;10457449;28;20060;-76
2022/06/29 18:46:35;;;;;;;0.28;0.20;;;;;;;25.38;53.02;101106.13;10446130;28;20049;-76
2022/06/29 18:51:37;;;;;;;0.28;0.28;;;;;;;25.07;51.76;101101.81;10417838;28;20381;-75
2022/06/29 18:56:38;;;;;;;0.32;0.20;;;;;;;24.98;52.71;101102.94;10457281;28;20468;-76
2022/06/29 19:01:40;;;;;;;0.10;0.10;;;;;;;24.90;53.92;101109.38;10427374;28;20088;-76
2022/06/29 19:06:42;;;;;;;0.40;0.32;;;;;;;24.80;55.29;101103.53;10445629;28;20063;-76
2022/06/29 19:11:50;;;;;;;0.08;0.03;;;;;;;24.57;56.32;101107.66;10463738;28;20098;-77
2022/06/29 19:16:52;;;;;;;0.47;0.38;;;;;;;24.35;57.06;101103.03;10438915;28;20370;-76
2022/06/29 19:21:54;;;;;;;0.55;0.30;;;;;;;24.34;55.52;101109.19;10454140;28;20390;-76
2022/06/29 19:26:56;;;;;;;0.22;0.20;;;;;;;24.13;56.74;101107.16;10462545;28;20435;-75
2022/06/29 19:31:58;;;;;;;0.20;0.20;;;;;;;23.71;61.63;101108.25;10462868;28;20114;-76
2022/06/29 19:36:59;;;;;;;0.20;0.10;;;;;;;23.58;65.00;101113.81;10462522;28;20573;-76
2022/06/29 19:42:01;;;;;;;0.10;0.10;;;;;;;23.38;64.36;101109.06;10462634;28;20048;-76
2022/06/29 19:47:03;;;;;;;0.00;0.00;;;;;;;22.57;69.94;101124.84;10461850;28;20057;-76
2022/06/29 19:52:05;;;;;;;0.10;0.10;;;;;;;22.48;71.47;101126.78;10461377;28;20037;-75
2022/06/29 19:57:07;;;;;;;0.08;0.08;;;;;;;22.28;71.15;101134.16;10461445;28;20460;-76
2022/06/29 20:02:09;;;;;;;0.00;0.00;;;;;;;21.82;76.77;101134.09;10430309;28;20042;-76
2022/06/29 20:07:10;;;;;;;0.22;0.22;;;;;;;21.86;75.72;101133.13;10436099;28;20504;-77
2022/06/29 20:12:12;;;;;;;0.15;0.10;;;;;;;21.97;70.83;101134.72;10423769;28;20072;-76
2022/06/29 20:17:13;;;;;;;0.35;0.30;;;;;;;21.79;71.42;101152.50;10461495;28;20102;-76
2022/06/29 20:22:15;;;;;;;0.52;0.20;;;;;;;21.73;76.06;101147.34;10442979;28;20045;-76
2022/06/29 20:27:17;;;;;;;0.30;0.30;;;;;;;21.32;82.44;101151.47;10461885;28;20044;-75
2022/06/29 20:32:18;;;;;;;0.30;0.30;;;;;;;21.12;78.58;101144.75;10440490;28;20084;-77
2022/06/29 20:37:20;;;;;;;0.20;0.20;;;;;;;21.08;77.52;101146.56;10445148;28;20060;-76
2022/06/29 20:42:22;;;;;;;0.10;0.10;;;;;;;20.97;82.30;101139.72;10461740;28;20041;-76
2022/06/29 20:47:36;;;;;;;0.17;0.17;;;;;;;20.69;85.20;101140.06;10430761;28;20049;-76
2022/06/29 20:52:37;;;;;;;0.30;0.10;;;;;;;20.48;83.74;101144.69;10444070;28;20051;-76
2022/06/29 20:57:40;;;;;;;0.57;0.38;;;;;;;20.29;84.93;101146.63;10461712;28;20041;-75
2022/06/29 21:02:42;;;;;;;0.32;0.20;;;;;;;20.10;88.27;101135.50;10445387;28;20063;-75
2022/06/29 21:07:44;;;;;;;0.22;0.10;;;;;;;20.06;86.94;101136.41;10457773;28;20049;-74
2022/06/29 21:12:46;;;;;;;0.63;0.25;;;;;;;20.16;84.12;101145.88;10424928;28;20045;-75
2022/06/29 21:17:48;;;;;;;0.40;0.20;;;;;;;19.83;90.41;101153.16;10460495;28;20044;-74
2022/06/29 21:23:09;;;;;;;0.30;0.22;;;;;;;19.56;91.90;101165.53;10457873;28;20045;-75
2022/06/29 21:28:11;;;;;;;2.30;0.20;;;;;;;19.52;91.23;101158.63;10447841;28;20052;-77
2022/06/29 21:33:14;;;;;;;0.17;0.17;;;;;;;19.18;93.91;101158.81;10457538;28;20507;-77
2022/06/29 21:38:16;;;;;;;0.30;0.30;;;;;;;19.15;92.66;101169.31;10423993;28;20053;-76
2022/06/29 21:43:20;;;;;;;0.15;0.13;;;;;;;19.17;92.11;101164.94;10457578;28;20063;-75
2022/06/29 21:55:16;;;;;;;0.25;0.25;;;;;;;18.66;100.00;101166.00;10456817;28;20112;-75
2022/06/29 22:00:20;;;;;;;0.22;0.10;;;;;;;18.38;100.00;101168.69;10450792;28;20052;-76
2022/06/29 22:05:22;;;;;;;0.90;0.55;;;;;;;18.32;100.00;101165.22;10498422;28;20040;-76
2022/06/29 22:10:24;;;;;;;0.20;0.20;;;;;;;18.48;98.87;101161.69;10497999;28;20049;-76
2022/06/29 22:15:25;;;;;;;0.10;0.10;;;;;;;18.37;100.00;101171.31;10460296;28;20056;-76
2022/06/29 22:20:29;;;;;;;0.65;0.30;;;;;;;18.31;98.90;101161.75;10437710;28;20455;-75
2022/06/29 22:25:30;;;;;;;0.43;0.32;;;;;;;18.32;100.00;101171.31;10423546;28;20042;-75
2022/06/29 22:30:32;;;;;;;0.55;0.30;;;;;;;18.39;99.63;101167.81;10439923;28;20049;-76
2022/06/29 22:35:34;;;;;;;0.68;0.40;;;;;;;18.19;100.00;101180.03;10446541;28;20041;-77
2022/06/29 22:40:35;;;;;;;0.52;0.20;;;;;;;18.05;100.00;101178.31;10464306;28;20123;-76
2022/06/29 22:45:37;;;;;;;0.70;0.50;;;;;;;17.65;100.00;101175.66;10446937;28;20069;-75
2022/06/29 22:50:39;;;;;;;0.45;0.30;;;;;;;17.70;100.00;101171.31;10463910;28;20566;-75
2022/06/29 22:55:43;;;;;;;0.73;0.47;;;;;;;17.71;100.00;101175.66;10445742;28;20064;-76
2022/06/29 23:01:00;;;;;;;0.38;0.30;;;;;;;17.62;100.00;101162.63;10445417;28;20053;-76
2022/06/29 23:06:14;;;;;;;0.47;0.30;;;;;;;17.48;100.00;101164.34;10410030;28;20046;-76
2022/06/29 23:17:04;;;;;;;0.40;0.40;;;;;;;17.38;100.00;101161.75;10421581;28;20072;-76
2022/06/29 23:22:05;;;;;;;0.47;0.38;;;;;;;17.41;100.00;101164.34;10404015;28;20038;-75
2022/06/29 23:27:07;;;;;;;0.93;0.60;;;;;;;17.24;100.00;101158.22;10386744;28;20480;-76
2022/06/29 23:32:08;;;;;;;1.15;0.40;;;;;;;17.36;100.00;101154.78;10439338;28;20391;-75
2022/06/29 23:37:10;;;;;;;0.45;0.25;;;;;;;17.38;100.00;101153.94;10462101;28;20037;-75
2022/06/29 23:42:12;;;;;;;6.75;0.85;;;;;;;17.05;100.00;101163.38;10463049;28;20121;-76
2022/06/29 23:47:14;;;;;;;0.32;0.28;;;;;;;16.99;100.00;101152.97;10461945;28;20115;-76
2022/06/29 23:52:15;;;;;;;0.40;0.38;;;;;;;17.07;100.00;101143.44;10461559;28;20049;-76
2022/06/29 23:57:17;;;;;;;0.57;0.30;;;;;;;16.81;100.00;101138.97;10461267;28;20051;-76
